Time;durP1;ratioP1;P1;durP2;ratioP2;P2;SDS_P1;SDS_P2;PMS_P1;PMS_P2;Temp;Humidity;BMP_temperature;BMP_pressure;BME280_temperature;BME280_humidity;BME280_pressure;Samples;Min_cycle;Max_cycle;Signal;HPM_P1;HPM_P2
2021/12/01 00:01:05;;;;;;;50.88;15.90;;;8.20;99.90;;;;;;5153854;27;20482;-55
2021/12/01 00:03:30;;;;;;;44.60;16.17;;;8.20;99.90;;;;;;5152401;27;20038;-56
2021/12/01 00:05:56;;;;;;;40.40;15.85;;;8.30;99.90;;;;;;5153903;27;20101;-54
2021/12/01 00:08:22;;;;;;;43.35;16.17;;;8.30;99.90;;;;;;5153574;27;20046;-55
2021/12/01 00:10:48;;;;;;;36.47;15.40;;;8.30;99.90;;;;;;5153885;27;20035;-56
2021/12/01 00:13:18;;;;;;;39.45;15.45;;;8.40;99.90;;;;;;5153950;27;20038;-54
2021/12/01 00:15:45;;;;;;;37.33;17.77;;;8.50;99.90;;;;;;5153577;27;20042;-52
2021/12/01 00:18:12;;;;;;;48.15;18.60;;;8.50;99.90;;;;;;5153499;27;20375;-52
2021/12/01 00:20:38;;;;;;;46.22;18.98;;;8.50;99.90;;;;;;5153563;27;20187;-54
2021/12/01 00:23:05;;;;;;;51.05;20.15;;;8.60;99.90;;;;;;5153840;27;20113;-53
2021/12/01 00:25:36;;;;;;;50.55;20.80;;;8.60;99.90;;;;;;5153516;27;20043;-53
2021/12/01 00:28:02;;;;;;;56.95;23.02;;;8.60;99.90;;;;;;5153744;27;20402;-55
2021/12/01 00:30:28;;;;;;;49.42;22.52;;;8.70;99.90;;;;;;5154364;27;20039;-55
2021/12/01 00:32:55;;;;;;;50.97;22.27;;;8.70;99.90;;;;;;5156162;27;20034;-53
2021/12/01 00:35:21;;;;;;;48.42;22.02;;;8.70;99.90;;;;;;5157383;27;20035;-53
2021/12/01 00:37:47;;;;;;;55.10;23.88;;;8.70;99.90;;;;;;5156254;27;20030;-52
2021/12/01 00:40:13;;;;;;;57.70;25.02;;;8.70;99.90;;;;;;5157569;27;20033;-54
2021/12/01 00:42:40;;;;;;;54.35;24.00;;;8.70;99.90;;;;;;5157361;27;20074;-52
2021/12/01 00:45:12;;;;;;;54.58;24.60;;;8.80;99.90;;;;;;5157357;27;20076;-54
2021/12/01 00:47:44;;;;;;;49.65;25.25;;;8.80;99.90;;;;;;5157481;27;20110;-52
2021/12/01 00:50:19;;;;;;;48.75;23.00;;;8.80;99.90;;;;;;5157110;27;20046;-55
2021/12/01 00:52:45;;;;;;;50.97;22.98;;;8.80;99.90;;;;;;5157151;27;20046;-53
2021/12/01 00:55:11;;;;;;;53.17;24.05;;;8.80;99.90;;;;;;5157213;27;20035;-53
2021/12/01 00:57:37;;;;;;;43.75;22.45;;;8.80;99.90;;;;;;5156975;27;20539;-52
2021/12/01 01:00:05;;;;;;;48.45;23.23;;;8.80;99.90;;;;;;5157315;27;20077;-52
2021/12/01 01:02:31;;;;;;;49.15;22.83;;;8.80;99.90;;;;;;5157086;27;20047;-55
2021/12/01 01:04:57;;;;;;;47.15;23.55;;;8.80;99.90;;;;;;5157195;27;20039;-55
2021/12/01 01:07:22;;;;;;;43.92;21.70;;;8.90;99.90;;;;;;5155534;27;20043;-53
2021/12/01 01:09:49;;;;;;;44.08;22.42;;;8.90;99.90;;;;;;5156798;27;20055;-53
2021/12/01 01:17:51;;;;;;;43.42;22.40;;;9.00;99.90;;;;;;5156794;27;20046;-51
2021/12/01 01:20:18;;;;;;;36.53;19.05;;;8.90;99.90;;;;;;5156672;27;20467;-53
2021/12/01 01:22:43;;;;;;;33.47;16.35;;;8.90;99.90;;;;;;5156693;27;20034;-51
2021/12/01 01:25:10;;;;;;;32.05;17.67;;;8.90;99.90;;;;;;5156805;27;20088;-53
2021/12/01 01:27:36;;;;;;;30.05;16.60;;;8.90;99.90;;;;;;5156490;27;20116;-53
2021/12/01 01:30:04;;;;;;;34.17;16.45;;;8.90;99.90;;;;;;5156520;27;20053;-55
2021/12/01 01:32:33;;;;;;;33.03;15.70;;;8.90;99.90;;;;;;5154806;27;20555;-53
2021/12/01 01:34:59;;;;;;;33.42;15.02;;;8.90;99.90;;;;;;5155216;27;20042;-53
2021/12/01 01:37:24;;;;;;;29.02;15.13;;;8.90;99.90;;;;;;5156140;27;20027;-55
2021/12/01 01:39:50;;;;;;;27.25;13.95;;;8.90;99.90;;;;;;5156423;27;20037;-55
2021/12/01 01:42:15;;;;;;;28.85;14.13;;;8.90;99.90;;;;;;5155869;27;20505;-54
2021/12/01 01:44:41;;;;;;;31.48;12.38;;;9.00;99.90;;;;;;5156163;27;20094;-54
2021/12/01 01:47:07;;;;;;;25.27;13.30;;;9.00;99.90;;;;;;5156031;27;20045;-53
2021/12/01 01:49:57;;;;;;;26.20;11.95;;;9.00;99.90;;;;;;5154672;27;20054;-55
2021/12/01 01:52:23;;;;;;;23.52;10.73;;;9.00;99.90;;;;;;5156120;27;20126;-55
2021/12/01 01:54:48;;;;;;;26.00;11.18;;;9.00;99.90;;;;;;5154724;27;20125;-54
2021/12/01 01:57:14;;;;;;;25.30;10.75;;;9.10;99.90;;;;;;5156118;27;20035;-54
2021/12/01 01:59:40;;;;;;;25.75;10.10;;;9.00;99.90;;;;;;5155837;27;20078;-54
2021/12/01 02:02:05;;;;;;;21.23;9.90;;;9.10;99.90;;;;;;5155730;27;20046;-53
2021/12/01 02:04:34;;;;;;;21.25;8.52;;;9.10;99.90;;;;;;5154464;27;20045;-54
2021/12/01 02:07:02;;;;;;;18.50;8.73;;;9.10;99.90;;;;;;5155981;27;20386;-52
2021/12/01 02:09:28;;;;;;;21.02;7.45;;;9.10;99.90;;;;;;5155719;27;20054;-54
2021/12/01 02:11:59;;;;;;;19.98;6.97;;;9.10;99.90;;;;;;5155634;27;20042;-56
2021/12/01 02:14:27;;;;;;;17.38;6.57;;;9.10;99.90;;;;;;5154292;27;20360;-52
2021/12/01 02:16:53;;;;;;;16.98;5.55;;;9.10;99.90;;;;;;5155358;27;20045;-54
2021/12/01 02:19:19;;;;;;;13.68;5.18;;;9.10;99.90;;;;;;5155373;27;20084;-52
2021/12/01 02:21:46;;;;;;;16.73;5.28;;;9.10;99.90;;;;;;5153955;27;20055;-53
2021/12/01 02:24:14;;;;;;;16.85;5.10;;;9.10;99.90;;;;;;5155654;27;20185;-52
2021/12/01 02:26:46;;;;;;;12.80;4.20;;;9.20;99.90;;;;;;5155571;27;20110;-54
2021/12/01 02:29:15;;;;;;;21.58;4.63;;;9.10;99.90;;;;;;5155185;27;20057;-55
2021/12/01 02:31:41;;;;;;;14.23;4.00;;;9.10;99.90;;;;;;5154590;27;20142;-54
2021/12/01 02:34:16;;;;;;;10.68;3.72;;;9.10;99.90;;;;;;5154363;27;20099;-53
2021/12/01 02:36:44;;;;;;;11.88;3.33;;;9.10;99.90;;;;;;5154971;27;20049;-53
2021/12/01 02:39:13;;;;;;;10.15;3.13;;;9.10;99.90;;;;;;5154922;27;20478;-52
2021/12/01 02:41:39;;;;;;;9.23;2.25;;;9.00;99.90;;;;;;5155256;27;20035;-55
2021/12/01 02:44:06;;;;;;;7.82;2.30;;;9.10;99.90;;;;;;5154700;27;20612;-54
2021/12/01 02:46:34;;;;;;;10.00;2.70;;;9.10;99.90;;;;;;5153962;27;20043;-54
2021/12/01 02:49:00;;;;;;;12.48;3.75;;;9.10;99.90;;;;;;5154125;27;20088;-55
2021/12/01 02:51:28;;;;;;;11.48;2.88;;;9.20;99.90;;;;;;5154382;27;20075;-54
2021/12/01 02:53:54;;;;;;;11.55;3.50;;;9.00;99.90;;;;;;5154306;27;20432;-55
2021/12/01 02:56:22;;;;;;;13.20;3.80;;;9.10;99.90;;;;;;5154705;27;20149;-55
2021/12/01 02:58:48;;;;;;;12.35;3.33;;;9.10;99.90;;;;;;5154317;27;20049;-55
2021/12/01 03:01:22;;;;;;;17.08;3.67;;;9.10;99.90;;;;;;5154577;27;20030;-52
2021/12/01 03:03:49;;;;;;;14.82;4.78;;;9.10;99.90;;;;;;5154895;27;20090;-55
2021/12/01 03:06:18;;;;;;;16.23;3.78;;;9.10;99.90;;;;;;5154628;27;20060;-55
2021/12/01 03:08:46;;;;;;;20.65;4.30;;;9.10;99.90;;;;;;5154497;27;20038;-53
2021/12/01 03:11:12;;;;;;;13.10;3.75;;;9.20;99.90;;;;;;5154483;27;20047;-55
2021/12/01 03:13:39;;;;;;;15.90;4.95;;;9.10;99.90;;;;;;5154265;27;20081;-55
2021/12/01 03:16:05;;;;;;;14.90;4.00;;;9.10;99.90;;;;;;5154572;27;20039;-55
2021/12/01 03:18:31;;;;;;;17.13;3.20;;;9.20;99.90;;;;;;5154451;27;20042;-55
2021/12/01 03:20:57;;;;;;;12.43;3.08;;;9.20;99.90;;;;;;5153093;27;20486;-54
2021/12/01 03:23:24;;;;;;;9.25;3.05;;;9.20;99.90;;;;;;5154315;27;20414;-55
2021/12/01 03:25:50;;;;;;;12.23;2.95;;;9.20;99.90;;;;;;5154294;27;20360;-55
2021/12/01 03:28:16;;;;;;;13.05;3.38;;;9.20;99.90;;;;;;5153997;27;20498;-52
2021/12/01 03:30:43;;;;;;;12.52;2.80;;;9.20;99.90;;;;;;5154224;27;20047;-54
2021/12/01 03:33:16;;;;;;;11.27;2.72;;;9.20;99.90;;;;;;5154130;27;20041;-55
2021/12/01 03:35:44;;;;;;;13.85;2.85;;;9.20;99.90;;;;;;5154159;27;20030;-54
2021/12/01 03:38:11;;;;;;;13.43;2.90;;;9.20;99.90;;;;;;5153890;27;20843;-55
2021/12/01 03:40:38;;;;;;;12.95;3.17;;;9.20;99.90;;;;;;5154236;27;20071;-54
2021/12/01 03:43:04;;;;;;;12.90;2.85;;;9.20;99.90;;;;;;5154199;27;20045;-55
2021/12/01 03:45:30;;;;;;;12.52;3.28;;;9.20;99.90;;;;;;5154319;27;20038;-52
2021/12/01 03:47:56;;;;;;;10.45;3.17;;;9.20;99.90;;;;;;5154037;27;20454;-55
2021/12/01 03:50:22;;;;;;;16.05;3.28;;;9.20;99.90;;;;;;5153807;27;20057;-52
2021/12/01 03:52:48;;;;;;;19.90;3.45;;;9.20;99.90;;;;;;5153922;27;20039;-55
2021/12/01 03:55:13;;;;;;;15.20;3.67;;;9.20;99.90;;;;;;5153759;27;20043;-55
2021/12/01 03:57:40;;;;;;;17.23;4.88;;;9.20;99.90;;;;;;5152795;27;20039;-55
2021/12/01 04:00:09;;;;;;;20.90;3.70;;;9.20;99.90;;;;;;5154022;27;20026;-54
2021/12/01 04:02:35;;;;;;;20.83;3.53;;;9.10;99.90;;;;;;5153809;27;20049;-54
2021/12/01 04:05:00;;;;;;;17.88;3.38;;;9.10;99.90;;;;;;5155347;27;20126;-54
2021/12/01 04:07:26;;;;;;;21.83;3.92;;;9.10;99.90;;;;;;5156865;27;20042;-54
2021/12/01 04:09:52;;;;;;;21.40;6.13;;;9.10;99.90;;;;;;5158272;27;20070;-55
2021/12/01 04:12:18;;;;;;;21.73;3.25;;;9.10;99.90;;;;;;5158067;27;20031;-53
2021/12/01 04:14:44;;;;;;;16.58;3.80;;;9.20;99.90;;;;;;5158015;27;20077;-52
2021/12/01 04:17:10;;;;;;;23.77;3.45;;;9.10;99.90;;;;;;5158078;27;20030;-55
2021/12/01 04:19:36;;;;;;;20.23;3.33;;;9.10;99.90;;;;;;5157748;27;20034;-53
2021/12/01 04:22:02;;;;;;;18.67;3.38;;;9.10;99.90;;;;;;5157772;27;20067;-56
2021/12/01 04:24:28;;;;;;;14.50;2.90;;;9.10;99.90;;;;;;5157739;27;20039;-51
2021/12/01 04:26:54;;;;;;;15.32;3.45;;;9.00;99.90;;;;;;5157689;27;20049;-54
2021/12/01 04:29:20;;;;;;;15.02;3.95;;;9.10;99.90;;;;;;5157685;27;20039;-55
2021/12/01 04:31:45;;;;;;;18.58;2.92;;;9.10;99.90;;;;;;5157699;27;20039;-53
2021/12/01 04:34:11;;;;;;;15.50;2.70;;;9.10;99.90;;;;;;5157492;27;20035;-51
2021/12/01 04:36:40;;;;;;;15.45;3.22;;;9.10;99.90;;;;;;5157321;27;20039;-53
2021/12/01 04:39:09;;;;;;;20.17;3.38;;;9.10;99.90;;;;;;5157490;27;20135;-52
2021/12/01 04:41:47;;;;;;;15.32;3.03;;;9.00;99.90;;;;;;5157459;27;20095;-54
2021/12/01 04:44:14;;;;;;;9.95;2.83;;;9.10;99.90;;;;;;5157480;27;20034;-55
2021/12/01 04:46:46;;;;;;;14.90;2.95;;;9.10;99.90;;;;;;5157343;27;20047;-54
2021/12/01 04:49:14;;;;;;;11.15;2.70;;;9.10;99.90;;;;;;5157180;27;20051;-55
2021/12/01 04:51:42;;;;;;;11.57;2.63;;;9.10;99.90;;;;;;5156093;27;20068;-52
2021/12/01 04:54:08;;;;;;;10.15;2.88;;;9.10;99.90;;;;;;5157235;27;20034;-56
2021/12/01 04:56:35;;;;;;;9.40;3.53;;;9.10;99.90;;;;;;5138548;27;20079;-55
2021/12/01 04:59:01;;;;;;;11.57;2.72;;;9.20;99.90;;;;;;5157262;27;20122;-55
2021/12/01 05:01:26;;;;;;;10.68;3.30;;;9.10;99.90;;;;;;5155636;27;20121;-55
2021/12/01 05:03:52;;;;;;;8.63;3.00;;;9.10;99.90;;;;;;5157032;27;20034;-56
2021/12/01 05:06:18;;;;;;;6.70;2.53;;;9.10;99.90;;;;;;5157154;27;20035;-55
2021/12/01 05:08:45;;;;;;;11.48;3.40;;;9.10;99.90;;;;;;5156847;27;20043;-54
2021/12/01 05:11:10;;;;;;;9.10;3.33;;;9.10;99.90;;;;;;5157057;27;20109;-56
2021/12/01 05:13:36;;;;;;;7.70;2.58;;;9.10;99.90;;;;;;5156871;27;20447;-54
2021/12/01 05:16:02;;;;;;;6.40;2.70;;;9.10;99.90;;;;;;5156050;27;20084;-56
2021/12/01 05:18:27;;;;;;;8.18;2.47;;;9.10;99.90;;;;;;5156389;27;20091;-54
2021/12/01 05:20:53;;;;;;;5.18;2.55;;;9.20;99.90;;;;;;5156778;27;20081;-55
2021/12/01 05:23:19;;;;;;;7.07;2.08;;;9.20;99.90;;;;;;5156461;27;20043;-55
2021/12/01 05:25:45;;;;;;;4.50;1.90;;;9.10;99.90;;;;;;5156741;27;20038;-56
2021/12/01 05:28:12;;;;;;;4.03;1.70;;;9.10;99.90;;;;;;5156514;27;20382;-53
2021/12/01 05:30:38;;;;;;;3.80;1.50;;;9.10;99.90;;;;;;5156503;27;20049;-55
2021/12/01 05:33:06;;;;;;;5.00;1.55;;;9.10;99.90;;;;;;5156387;27;20042;-57
2021/12/01 05:35:32;;;;;;;3.75;1.60;;;9.00;99.90;;;;;;5156509;27;20045;-53
2021/12/01 05:37:58;;;;;;;2.80;1.27;;;9.00;99.90;;;;;;5156534;27;20117;-56
2021/12/01 05:40:24;;;;;;;3.42;1.35;;;9.00;99.90;;;;;;5154957;27;20122;-53
2021/12/01 05:42:50;;;;;;;2.67;1.10;;;9.00;99.90;;;;;;5156288;27;20046;-54
2021/12/01 05:45:16;;;;;;;3.00;1.15;;;9.10;99.90;;;;;;5156380;27;20105;-55
2021/12/01 05:47:41;;;;;;;2.60;1.00;;;9.00;99.90;;;;;;5156355;27;20477;-52
2021/12/01 05:50:08;;;;;;;2.38;0.95;;;9.00;99.90;;;;;;5155930;27;20143;-56
2021/12/01 05:52:34;;;;;;;6.05;1.30;;;9.00;99.90;;;;;;5156060;27;20100;-55
2021/12/01 05:55:00;;;;;;;3.05;1.27;;;8.90;99.90;;;;;;5155946;27;20506;-56
2021/12/01 05:57:26;;;;;;;3.25;1.10;;;8.90;99.90;;;;;;5155861;27;20118;-55
2021/12/01 05:59:51;;;;;;;3.72;1.42;;;8.90;99.90;;;;;;5154620;27;20049;-52
2021/12/01 06:02:17;;;;;;;3.38;1.23;;;8.90;99.90;;;;;;5156067;27;20401;-55
2021/12/01 06:04:43;;;;;;;3.95;1.65;;;8.90;99.90;;;;;;5156082;27;20041;-55
2021/12/01 06:07:09;;;;;;;3.65;1.45;;;8.90;99.90;;;;;;5155935;27;20043;-53
2021/12/01 06:09:35;;;;;;;3.97;1.50;;;8.80;99.90;;;;;;5155655;27;20092;-56
2021/12/01 06:12:01;;;;;;;3.92;1.52;;;8.80;99.90;;;;;;5155829;27;20039;-54
2021/12/01 06:14:27;;;;;;;4.82;1.90;;;8.80;99.90;;;;;;5155824;27;20035;-55
2021/12/01 06:16:53;;;;;;;5.70;1.90;;;8.80;99.90;;;;;;5155442;27;20046;-52
2021/12/01 06:19:20;;;;;;;5.05;2.05;;;8.80;99.90;;;;;;5155954;27;20042;-54
2021/12/01 06:21:45;;;;;;;5.72;2.17;;;8.70;99.90;;;;;;5155599;27;20680;-54
2021/12/01 06:24:11;;;;;;;5.60;2.35;;;8.80;99.90;;;;;;5155494;27;20042;-55
2021/12/01 06:26:37;;;;;;;6.00;2.67;;;8.80;99.90;;;;;;5155339;27;20037;-54
2021/12/01 06:29:04;;;;;;;6.88;2.92;;;8.80;99.90;;;;;;5152779;27;20394;-52
2021/12/01 06:31:29;;;;;;;6.55;2.95;;;8.80;99.90;;;;;;5155522;27;20159;-54
2021/12/01 06:33:58;;;;;;;6.60;3.08;;;8.70;99.90;;;;;;5155468;27;20475;-52
2021/12/01 06:36:24;;;;;;;7.68;3.25;;;8.80;99.90;;;;;;5155210;27;20393;-53
2021/12/01 06:38:50;;;;;;;6.93;3.20;;;8.80;99.90;;;;;;5153874;27;20039;-56
2021/12/01 06:41:16;;;;;;;7.10;2.80;;;8.70;99.90;;;;;;5155261;27;20336;-53
2021/12/01 06:43:41;;;;;;;6.00;2.72;;;8.70;99.90;;;;;;5154962;27;20039;-54
2021/12/01 06:46:07;;;;;;;7.32;2.85;;;8.70;99.90;;;;;;5154993;27;20124;-54
2021/12/01 06:48:33;;;;;;;5.78;2.35;;;8.70;99.90;;;;;;5154838;27;20042;-55
2021/12/01 06:51:00;;;;;;;6.53;2.40;;;8.70;99.90;;;;;;5154738;27;20440;-55
2021/12/01 06:53:26;;;;;;;5.15;2.60;;;8.70;99.90;;;;;;5155182;27;20073;-54
2021/12/01 06:55:53;;;;;;;5.55;2.70;;;8.70;99.90;;;;;;5155022;27;20043;-55
2021/12/01 06:58:19;;;;;;;6.10;2.60;;;8.70;99.90;;;;;;5154616;27;20110;-54
2021/12/01 07:00:45;;;;;;;7.00;2.40;;;8.70;99.90;;;;;;5154768;27;20533;-53
2021/12/01 07:03:10;;;;;;;6.18;2.30;;;8.70;99.90;;;;;;5154656;27;20045;-51
2021/12/01 07:05:36;;;;;;;5.70;2.45;;;8.70;99.90;;;;;;5154698;27;20039;-55
2021/12/01 07:08:03;;;;;;;5.28;2.50;;;8.70;99.90;;;;;;5154704;27;20030;-53
2021/12/01 07:10:29;;;;;;;6.63;2.53;;;8.70;99.90;;;;;;5154219;27;20046;-53
2021/12/01 07:12:55;;;;;;;6.20;2.90;;;8.70;99.90;;;;;;5154289;27;20038;-54
2021/12/01 07:15:21;;;;;;;6.72;3.30;;;8.70;99.90;;;;;;5154641;27;20034;-55
2021/12/01 07:17:47;;;;;;;8.27;3.78;;;8.70;99.90;;;;;;5154339;27;20079;-53
2021/12/01 07:20:13;;;;;;;12.20;4.68;;;8.70;99.90;;;;;;5153193;27;20039;-55
2021/12/01 07:22:39;;;;;;;8.10;3.97;;;8.70;99.90;;;;;;5154165;27;20562;-54
2021/12/01 07:25:05;;;;;;;8.35;3.80;;;8.80;99.90;;;;;;5154242;27;20043;-56
2021/12/01 07:27:31;;;;;;;8.32;3.63;;;8.80;99.90;;;;;;5154074;27;20084;-52
2021/12/01 07:29:57;;;;;;;9.30;3.60;;;8.80;99.90;;;;;;5154373;27;20070;-53
2021/12/01 07:32:23;;;;;;;8.10;4.22;;;8.80;99.90;;;;;;5154328;27;20031;-55
2021/12/01 07:34:48;;;;;;;9.05;4.35;;;8.80;99.90;;;;;;5154433;27;20038;-55
2021/12/01 07:37:16;;;;;;;10.57;4.55;;;8.90;99.90;;;;;;5154121;27;20022;-54
2021/12/01 07:39:43;;;;;;;12.80;4.63;;;8.90;99.90;;;;;;5153922;27;20510;-51
2021/12/01 07:42:09;;;;;;;9.93;4.55;;;8.80;99.90;;;;;;5154101;27;20088;-55
2021/12/01 07:44:35;;;;;;;11.68;4.82;;;8.80;99.90;;;;;;5154135;27;20117;-54
2021/12/01 07:47:01;;;;;;;11.90;4.72;;;8.80;99.90;;;;;;5153697;27;20173;-53
2021/12/01 07:49:27;;;;;;;10.05;4.93;;;8.90;99.90;;;;;;5153970;27;20047;-52
2021/12/01 07:51:54;;;;;;;11.85;5.70;;;8.90;99.90;;;;;;5153719;27;20038;-54
2021/12/01 07:54:20;;;;;;;12.43;5.30;;;8.90;99.90;;;;;;5153750;27;20107;-51
2021/12/01 07:56:46;;;;;;;12.27;4.55;;;8.90;99.90;;;;;;5153914;27;20046;-52
2021/12/01 07:59:15;;;;;;;12.20;4.72;;;8.90;99.90;;;;;;5153885;27;20047;-52
2021/12/01 08:01:44;;;;;;;14.18;5.43;;;8.90;99.90;;;;;;5153861;27;20632;-54
2021/12/01 08:04:11;;;;;;;12.02;4.85;;;8.90;99.90;;;;;;5153764;27;20035;-54
2021/12/01 08:06:38;;;;;;;9.55;4.70;;;8.90;99.90;;;;;;5153861;27;20073;-54
2021/12/01 08:09:04;;;;;;;11.15;4.55;;;9.00;99.90;;;;;;5153632;27;20047;-53
2021/12/01 08:11:30;;;;;;;10.70;4.82;;;8.90;99.90;;;;;;5154049;27;20045;-51
2021/12/01 08:13:56;;;;;;;12.35;4.43;;;8.90;99.90;;;;;;5153574;27;20102;-54
2021/12/01 08:16:22;;;;;;;13.05;4.60;;;9.00;99.90;;;;;;5153603;27;20084;-54
2021/12/01 08:18:51;;;;;;;8.93;4.18;;;8.90;99.90;;;;;;5153597;27;20046;-51
2021/12/01 08:21:21;;;;;;;10.55;5.25;;;8.90;99.90;;;;;;5153698;27;20091;-52
2021/12/01 08:23:48;;;;;;;8.48;3.88;;;9.00;99.90;;;;;;5153541;27;20089;-51
2021/12/01 08:26:14;;;;;;;7.65;2.42;;;9.00;99.90;;;;;;5153570;27;20490;-56
2021/12/01 08:28:41;;;;;;;8.95;2.42;;;8.80;99.90;;;;;;5153692;27;20038;-55
2021/12/01 08:31:08;;;;;;;9.95;2.63;;;8.90;99.90;;;;;;5153908;27;20363;-51
2021/12/01 08:33:34;;;;;;;8.40;2.40;;;8.80;99.90;;;;;;5153795;27;20048;-53
2021/12/01 08:35:59;;;;;;;10.93;2.33;;;8.80;99.90;;;;;;5153489;27;20074;-55
2021/12/01 08:38:25;;;;;;;15.20;2.40;;;8.80;99.90;;;;;;5153535;27;20058;-52
2021/12/01 08:40:51;;;;;;;12.95;2.85;;;8.70;99.90;;;;;;5153689;27;20034;-55
2021/12/01 08:43:17;;;;;;;8.93;1.95;;;8.70;99.90;;;;;;5153425;27;20501;-55
2021/12/01 08:45:42;;;;;;;9.52;2.13;;;8.70;99.90;;;;;;5153453;27;20064;-53
2021/12/01 08:48:08;;;;;;;13.95;2.70;;;8.70;99.90;;;;;;5153214;27;20102;-54
2021/12/01 08:50:35;;;;;;;12.65;2.25;;;8.60;99.90;;;;;;5153114;27;20058;-54
2021/12/01 08:53:00;;;;;;;13.50;2.00;;;8.60;99.90;;;;;;5156634;27;20042;-54
2021/12/01 08:55:27;;;;;;;11.30;1.92;;;8.70;99.90;;;;;;5157247;27;20395;-53
2021/12/01 08:57:53;;;;;;;11.73;2.00;;;8.60;99.90;;;;;;5156915;27;20049;-54
2021/12/01 09:00:20;;;;;;;10.60;1.90;;;8.60;99.90;;;;;;5156988;27;20046;-53
2021/12/01 09:02:46;;;;;;;14.68;2.47;;;8.70;99.90;;;;;;5157257;27;20103;-52
2021/12/01 09:05:12;;;;;;;9.93;2.13;;;8.70;99.90;;;;;;5157195;27;20035;-55
2021/12/01 09:07:38;;;;;;;16.65;3.60;;;8.60;99.90;;;;;;5156914;27;20427;-55
2021/12/01 09:10:05;;;;;;;11.73;2.55;;;8.70;99.90;;;;;;5157008;27;20042;-54
2021/12/01 09:12:32;;;;;;;11.93;1.90;;;8.60;99.90;;;;;;5156871;27;20039;-49
2021/12/01 09:14:57;;;;;;;9.18;1.70;;;8.60;99.90;;;;;;5157021;27;20070;-53
2021/12/01 09:17:26;;;;;;;13.93;1.60;;;8.60;99.90;;;;;;5156637;27;20470;-54
2021/12/01 09:19:52;;;;;;;8.38;1.98;;;8.60;99.90;;;;;;5156805;27;20043;-53
2021/12/01 09:22:19;;;;;;;10.25;1.80;;;8.40;99.90;;;;;;5156575;27;20081;-51
2021/12/01 09:24:46;;;;;;;7.05;1.60;;;8.40;99.90;;;;;;5156856;27;20050;-54
2021/12/01 09:27:13;;;;;;;10.80;1.70;;;8.30;99.90;;;;;;5156636;27;21122;-51
2021/12/01 09:29:39;;;;;;;7.70;1.60;;;8.40;99.90;;;;;;5156282;27;20070;-53
2021/12/01 09:32:06;;;;;;;9.70;2.25;;;8.40;99.90;;;;;;5156591;27;20548;-53
2021/12/01 09:34:32;;;;;;;10.80;1.77;;;8.40;99.90;;;;;;5156585;27;20087;-54
2021/12/01 09:36:58;;;;;;;16.67;2.30;;;8.40;99.90;;;;;;5156258;27;20482;-54
2021/12/01 09:39:25;;;;;;;13.20;1.85;;;8.40;99.90;;;;;;5156348;27;20038;-54
2021/12/01 09:41:51;;;;;;;12.05;2.20;;;8.40;99.90;;;;;;5156453;27;20606;-53
2021/12/01 09:44:18;;;;;;;10.07;2.00;;;8.40;99.90;;;;;;5156300;27;20043;-53
2021/12/01 09:46:43;;;;;;;9.30;1.80;;;8.40;99.90;;;;;;5156609;27;20398;-52
2021/12/01 09:49:09;;;;;;;9.32;1.73;;;8.40;99.90;;;;;;5156110;27;20057;-55
2021/12/01 09:51:36;;;;;;;11.10;2.00;;;8.40;99.90;;;;;;5156306;27;20047;-53
2021/12/01 09:54:03;;;;;;;9.20;1.73;;;8.50;99.90;;;;;;5156183;27;20053;-54
2021/12/01 09:56:31;;;;;;;11.63;1.88;;;8.50;99.90;;;;;;5154966;27;20422;-54
2021/12/01 09:58:57;;;;;;;12.57;2.58;;;8.50;99.90;;;;;;5155916;27;20099;-51
2021/12/01 10:01:26;;;;;;;11.55;2.03;;;8.50;99.90;;;;;;5156083;27;20043;-53
2021/12/01 10:03:52;;;;;;;15.15;2.25;;;8.60;99.90;;;;;;5155852;27;20034;-54
2021/12/01 10:06:23;;;;;;;12.90;2.30;;;8.70;99.90;;;;;;5155835;27;20494;-54
2021/12/01 10:09:01;;;;;;;15.07;2.25;;;8.80;99.90;;;;;;5155766;27;20414;-53
2021/12/01 10:11:32;;;;;;;16.55;3.00;;;8.90;99.90;;;;;;5155730;27;20119;-52
2021/12/01 10:14:03;;;;;;;17.73;3.28;;;8.80;99.90;;;;;;5155445;27;20522;-51
2021/12/01 10:16:37;;;;;;;16.30;2.25;;;8.80;99.90;;;;;;5155820;27;20035;-54
2021/12/01 10:19:08;;;;;;;19.35;3.35;;;8.80;99.90;;;;;;5154387;27;20051;-53
2021/12/01 10:21:39;;;;;;;13.63;2.40;;;8.70;99.90;;;;;;5155515;27;20035;-52
2021/12/01 10:24:17;;;;;;;14.38;2.63;;;8.80;99.90;;;;;;5155709;27;20058;-53
2021/12/01 10:26:58;;;;;;;19.05;2.40;;;8.80;99.90;;;;;;5155670;27;20038;-54
2021/12/01 10:29:35;;;;;;;14.60;2.28;;;8.70;99.90;;;;;;5155275;27;20038;-53
2021/12/01 10:32:07;;;;;;;14.13;2.45;;;8.70;99.90;;;;;;5155301;27;20075;-53
2021/12/01 10:34:39;;;;;;;12.63;2.20;;;8.60;99.90;;;;;;5155288;27;20114;-51
2021/12/01 10:37:26;;;;;;;16.10;2.30;;;8.60;99.90;;;;;;5155351;27;20039;-54
2021/12/01 10:40:18;;;;;;;16.10;2.55;;;8.60;99.90;;;;;;5155474;27;20047;-50
2021/12/01 10:43:14;;;;;;;18.85;2.88;;;8.60;99.90;;;;;;5155102;27;20042;-51
2021/12/01 10:45:47;;;;;;;17.25;2.28;;;8.60;99.90;;;;;;5155286;27;20432;-56
2021/12/01 10:48:25;;;;;;;15.90;2.20;;;8.70;99.90;;;;;;5153849;27;20435;-54
2021/12/01 10:50:51;;;;;;;21.08;2.95;;;8.70;99.90;;;;;;5154744;27;20043;-54
2021/12/01 10:53:21;;;;;;;17.40;3.05;;;8.70;99.90;;;;;;5154945;27;20398;-52
2021/12/01 10:55:55;;;;;;;15.68;2.60;;;8.70;99.90;;;;;;5154704;27;20039;-53
2021/12/01 10:58:22;;;;;;;14.40;2.75;;;8.70;99.90;;;;;;5154550;27;20534;-54
2021/12/01 11:00:53;;;;;;;12.00;2.60;;;8.80;99.90;;;;;;5154525;27;20559;-53
2021/12/01 11:03:24;;;;;;;17.80;2.88;;;8.90;99.90;;;;;;5154498;27;20042;-54
2021/12/01 11:05:52;;;;;;;16.98;3.13;;;8.90;99.90;;;;;;5154395;27;20039;-52
2021/12/01 11:08:19;;;;;;;18.75;3.22;;;8.90;99.90;;;;;;5154596;27;20103;-54
2021/12/01 11:11:09;;;;;;;15.90;2.50;;;8.90;99.90;;;;;;5154467;27;20122;-54
2021/12/01 11:13:38;;;;;;;10.88;2.47;;;8.90;99.90;;;;;;5145351;27;20547;-52
2021/12/01 11:16:08;;;;;;;18.35;2.80;;;8.80;99.90;;;;;;5154133;27;20070;-53
2021/12/01 11:18:37;;;;;;;14.77;2.60;;;8.70;99.90;;;;;;5154760;27;20073;-54
2021/12/01 11:21:18;;;;;;;18.52;3.10;;;8.70;99.90;;;;;;5154321;27;20091;-54
2021/12/01 11:23:55;;;;;;;20.35;3.28;;;8.80;99.90;;;;;;5154618;27;20039;-54
2021/12/01 11:26:23;;;;;;;21.40;4.40;;;8.70;99.90;;;;;;5154210;27;20035;-51
2021/12/01 11:28:55;;;;;;;23.83;5.25;;;8.40;99.90;;;;;;5153220;27;20061;-52
2021/12/01 11:31:25;;;;;;;22.25;4.32;;;8.30;99.90;;;;;;5154442;27;20435;-53
2021/12/01 11:33:55;;;;;;;21.05;4.40;;;8.20;99.90;;;;;;5153092;27;20085;-53
2021/12/01 11:36:29;;;;;;;23.38;5.03;;;8.00;99.90;;;;;;5154037;27;20038;-54
2021/12/01 11:38:58;;;;;;;24.63;4.10;;;8.00;99.90;;;;;;5154363;27;20132;-54
2021/12/01 11:41:25;;;;;;;18.25;3.97;;;7.90;99.90;;;;;;5153927;27;20475;-52
2021/12/01 11:43:51;;;;;;;21.05;4.32;;;7.80;99.90;;;;;;5154219;27;20064;-51
2021/12/01 11:46:18;;;;;;;19.98;3.50;;;7.60;99.90;;;;;;5153831;27;20543;-53
2021/12/01 11:48:52;;;;;;;19.92;5.13;;;7.70;99.90;;;;;;5153736;27;20070;-55
2021/12/01 11:51:36;;;;;;;21.25;5.43;;;7.70;99.90;;;;;;5154187;27;20058;-55
2021/12/01 11:54:19;;;;;;;14.02;3.30;;;7.80;99.90;;;;;;5154182;27;20050;-53
2021/12/01 11:57:08;;;;;;;24.10;3.90;;;7.80;99.90;;;;;;5153770;27;20501;-51
2021/12/01 11:59:43;;;;;;;18.08;3.17;;;7.70;99.90;;;;;;5154059;27;20039;-54
2021/12/01 12:02:18;;;;;;;18.92;3.60;;;7.80;99.90;;;;;;5154062;27;20038;-54
2021/12/01 12:04:46;;;;;;;23.92;3.90;;;7.90;99.90;;;;;;5153780;27;20503;-53
2021/12/01 12:07:16;;;;;;;29.30;5.45;;;7.90;99.90;;;;;;5153619;27;20038;-55
2021/12/01 12:10:01;;;;;;;18.83;3.75;;;7.90;99.90;;;;;;5153678;27;20039;-54
2021/12/01 12:12:26;;;;;;;16.17;3.22;;;7.90;99.90;;;;;;5154008;27;20119;-54
2021/12/01 12:14:55;;;;;;;27.58;4.93;;;8.00;99.90;;;;;;5153651;27;20126;-54
2021/12/01 12:17:41;;;;;;;15.65;2.95;;;8.00;99.90;;;;;;5153636;27;20038;-53
2021/12/01 12:20:38;;;;;;;17.15;3.10;;;8.00;99.90;;;;;;5153299;27;20130;-50
2021/12/01 12:23:08;;;;;;;18.95;2.72;;;7.90;99.90;;;;;;5152282;27;20547;-54
2021/12/01 12:25:44;;;;;;;14.80;2.50;;;7.90;99.90;;;;;;5154401;27;20490;-54
2021/12/01 12:28:23;;;;;;;15.48;2.63;;;7.90;99.90;;;;;;5157969;27;20078;-54
2021/12/01 12:30:51;;;;;;;15.27;2.60;;;7.90;99.90;;;;;;5157737;27;20636;-55
2021/12/01 12:33:22;;;;;;;11.63;2.88;;;7.90;99.90;;;;;;5157640;27;20035;-55
2021/12/01 12:35:51;;;;;;;12.52;2.30;;;7.80;99.90;;;;;;5157552;27;20035;-53
2021/12/01 12:38:16;;;;;;;15.07;2.83;;;7.70;99.90;;;;;;5157634;27;20064;-53
2021/12/01 12:40:43;;;;;;;15.73;4.03;;;7.60;99.90;;;;;;5157462;27;20046;-54
2021/12/01 12:43:21;;;;;;;16.65;4.00;;;7.60;99.90;;;;;;5157430;27;20034;-54
2021/12/01 12:46:02;;;;;;;18.10;3.45;;;7.70;99.90;;;;;;5157489;27;20042;-52
2021/12/01 12:48:49;;;;;;;15.68;3.05;;;7.70;99.90;;;;;;5157097;27;20069;-53
2021/12/01 12:51:19;;;;;;;18.70;2.85;;;7.70;99.90;;;;;;5157379;27;20071;-55
2021/12/01 12:54:00;;;;;;;15.95;2.53;;;7.70;99.90;;;;;;5157525;27;20110;-54
2021/12/01 12:56:29;;;;;;;17.38;2.75;;;7.60;99.90;;;;;;5156220;27;20041;-53
2021/12/01 12:59:19;;;;;;;12.55;3.10;;;7.60;99.90;;;;;;5157168;27;20115;-54